KRF weather

Kramfors Sollefteå Airport
Kramfors / Sollefteå, Västernorrlands län, Sweden

Public forecast

Using degrees Celsius for public forecast. Weather courtesy of forecast.io.

METAR (pilot weather report)

Retrieved 2019/08/22 17:20 UTC (37 minutes ago):

ESNK 221720Z 15011KT CAVOK 16/10 Q1017

TAF (pilot weather forecast)

Forecast is more than 12 hours old.

Retrieved 2015/10/08 12:00 UTC (4 years ago):

TAF ESNK 081130Z 0812/0824 18005KT CAVOK PROB40 0820/0824 4000 BR